EZY78LD LDSP-EGCC
Flight info
| Callsign | EZY78LD |
|---|---|
| Flight time | N/A |
| Altitude | 38000 |
| Route | UNIPA DCT KOTOR DCT GORPA DCT KFT DCT SIMBA DCT MOOCE L604 SULUS DCT GASKA DCT MASEK DCT ARPEG DCT VELED DCT GALSO Q63 ERING L179 LAM UN57 WELIN T420 ELVOS |
| Aircraft | A320/M-SDE3FGHIRWY/LB1 |
Departure
| Time | 2026-05-05 20:08 |
|---|---|
| Airport | Split Saint Jerome Airport (LDSP) |
Arrival
| Time | N/A |
|---|---|
| Airport | Manchester Airport (EGCC) |
| Time | Latitude | Longitude | Altitude | Speed | Heading |
|---|---|---|---|---|---|
| 2026-05-05 19:49 | 43.53726 | 16.29873 | 68 ft | 0 kts | 115° |
| 2026-05-05 19:55 | 43.53732 | 16.29855 | 60 ft | 4 kts | 116° |
| 2026-05-05 19:55 | 43.53745 | 16.29823 | 58 ft | 4 kts | 122° |
| 2026-05-05 19:55 | 43.53755 | 16.29801 | 63 ft | 1 kts | 124° |
| 2026-05-05 19:56 | 43.53756 | 16.29800 | 63 ft | 0 kts | 124° |
| 2026-05-05 20:00 | 43.53756 | 16.29804 | 68 ft | 1 kts | 102° |
| 2026-05-05 20:00 | 43.53757 | 16.29807 | 68 ft | 1 kts | 81° |
| 2026-05-05 20:00 | 43.53771 | 16.29838 | 62 ft | 4 kts | 81° |
| 2026-05-05 20:01 | 43.53770 | 16.29839 | 62 ft | 0 kts | 95° |
| 2026-05-05 20:01 | 43.53769 | 16.29844 | 64 ft | 1 kts | 102° |
| 2026-05-05 20:01 | 43.53769 | 16.29845 | 64 ft | 0 kts | 103° |
| 2026-05-05 20:02 | 43.53769 | 16.29842 | 63 ft | 0 kts | 104° |
| 2026-05-05 20:02 | 43.53766 | 16.29808 | 58 ft | 5 kts | 55° |
| 2026-05-05 20:02 | 43.53766 | 16.29810 | 58 ft | 1 kts | 54° |
| 2026-05-05 20:02 | 43.53782 | 16.29838 | 67 ft | 6 kts | 52° |
| 2026-05-05 20:03 | 43.53819 | 16.29905 | 66 ft | 11 kts | 53° |
| 2026-05-05 20:03 | 43.53878 | 16.30010 | 68 ft | 15 kts | 52° |
| 2026-05-05 20:03 | 43.53917 | 16.30060 | 68 ft | 5 kts | 16° |
| 2026-05-05 20:03 | 43.53940 | 16.30069 | 69 ft | 1 kts | 16° |
| 2026-05-05 20:04 | 43.53942 | 16.30070 | 69 ft | 1 kts | 16° |
| 2026-05-05 20:04 | 43.53960 | 16.30078 | 70 ft | 4 kts | 17° |
| 2026-05-05 20:04 | 43.53995 | 16.30093 | 65 ft | 7 kts | 18° |
| 2026-05-05 20:04 | 43.54050 | 16.30123 | 69 ft | 11 kts | 27° |
| 2026-05-05 20:05 | 43.54120 | 16.30200 | 72 ft | 14 kts | 48° |
| 2026-05-05 20:05 | 43.54192 | 16.30328 | 64 ft | 20 kts | 52° |
| 2026-05-05 20:05 | 43.54287 | 16.30501 | 61 ft | 25 kts | 52° |
| 2026-05-05 20:05 | 43.54398 | 16.30700 | 59 ft | 25 kts | 52° |
| 2026-05-05 20:06 | 43.54498 | 16.30877 | 57 ft | 19 kts | 52° |
| 2026-05-05 20:06 | 43.54552 | 16.31024 | 62 ft | 16 kts | 85° |
| 2026-05-05 20:06 | 43.54580 | 16.31042 | 46 ft | 5 kts | 289° |
| 2026-05-05 20:06 | 43.54567 | 16.31009 | 47 ft | 4 kts | 231° |
| 2026-05-05 20:07 | 43.54549 | 16.30978 | 59 ft | 6 kts | 231° |
| 2026-05-05 20:07 | 43.54401 | 16.30706 | 59 ft | 74 kts | 233° |
| 2026-05-05 20:07 | 43.53948 | 16.29891 | 73 ft | 137 kts | 232° |
| 2026-05-05 20:07 | 43.53293 | 16.28703 | 311 ft | 166 kts | 233° |
| 2026-05-05 20:08 | 43.52559 | 16.27394 | 860 ft | 178 kts | 232° |
| 2026-05-05 20:08 | 43.51795 | 16.26034 | 1562 ft | 183 kts | 229° |
| 2026-05-05 20:08 | 43.51151 | 16.24417 | 1927 ft | 213 kts | 256° |
| 2026-05-05 20:08 | 43.51404 | 16.22279 | 2313 ft | 246 kts | 299° |
| 2026-05-05 20:09 | 43.52706 | 16.20616 | 2831 ft | 271 kts | 336° |
| 2026-05-05 20:09 | 43.54548 | 16.19897 | 3566 ft | 280 kts | 351° |
| 2026-05-05 20:09 | 43.56486 | 16.19594 | 4617 ft | 280 kts | 354° |
| 2026-05-05 20:09 | 43.58416 | 16.19343 | 5708 ft | 277 kts | 352° |
| 2026-05-05 20:10 | 43.60324 | 16.19013 | 6726 ft | 275 kts | 350° |
| 2026-05-05 20:10 | 43.62217 | 16.18579 | 7659 ft | 277 kts | 346° |
| 2026-05-05 20:10 | 43.64113 | 16.18056 | 8546 ft | 280 kts | 345° |
| 2026-05-05 20:10 | 43.66002 | 16.17476 | 9405 ft | 284 kts | 343° |
| 2026-05-05 20:11 | 43.67954 | 16.16940 | 10223 ft | 292 kts | 352° |
| 2026-05-05 20:11 | 43.70057 | 16.17283 | 10527 ft | 322 kts | 18° |
| 2026-05-05 20:11 | 43.72069 | 16.18891 | 10905 ft | 344 kts | 32° |
| 2026-05-05 20:11 | 43.74059 | 16.20788 | 11600 ft | 350 kts | 32° |
| 2026-05-05 20:12 | 43.76069 | 16.22719 | 12370 ft | 354 kts | 32° |
| 2026-05-05 20:12 | 43.78104 | 16.24670 | 13130 ft | 358 kts | 32° |
| 2026-05-05 20:12 | 43.80161 | 16.26634 | 13884 ft | 361 kts | 32° |
| 2026-05-05 20:12 | 43.82218 | 16.28586 | 14529 ft | 365 kts | 32° |
| 2026-05-05 20:13 | 43.84323 | 16.30578 | 15206 ft | 368 kts | 32° |
| 2026-05-05 20:13 | 43.86447 | 16.32589 | 15879 ft | 371 kts | 32° |
| 2026-05-05 20:13 | 43.88590 | 16.34621 | 16548 ft | 375 kts | 32° |
| 2026-05-05 20:13 | 43.90752 | 16.36673 | 17195 ft | 379 kts | 32° |
| 2026-05-05 20:14 | 43.92938 | 16.38747 | 17818 ft | 382 kts | 32° |
| 2026-05-05 20:14 | 43.94394 | 16.40132 | 18238 ft | 385 kts | 32° |
| 2026-05-05 20:14 | 43.97366 | 16.42956 | 18989 ft | 389 kts | 31° |
| 2026-05-05 20:14 | 43.99732 | 16.44664 | 19543 ft | 389 kts | 18° |
| 2026-05-05 20:15 | 44.02340 | 16.45628 | 20085 ft | 389 kts | 5° |
| 2026-05-05 20:15 | 44.05033 | 16.45785 | 20667 ft | 387 kts | 353° |
| 2026-05-05 20:15 | 44.07674 | 16.45131 | 21248 ft | 386 kts | 340° |
| 2026-05-05 20:15 | 44.10162 | 16.43750 | 21827 ft | 385 kts | 332° |
| 2026-05-05 20:16 | 44.11779 | 16.42725 | 22209 ft | 387 kts | 332° |
| 2026-05-05 20:16 | 44.15075 | 16.40637 | 22982 ft | 390 kts | 332° |
| 2026-05-05 20:16 | 44.17555 | 16.39067 | 23535 ft | 393 kts | 332° |
| 2026-05-05 20:16 | 44.19206 | 16.38022 | 23851 ft | 395 kts | 332° |
| 2026-05-05 20:17 | 44.21713 | 16.36439 | 24310 ft | 397 kts | 332° |
| 2026-05-05 20:17 | 44.25055 | 16.34333 | 24886 ft | 399 kts | 332° |
| 2026-05-05 20:17 | 44.27594 | 16.32732 | 25328 ft | 401 kts | 332° |
| 2026-05-05 20:17 | 44.29278 | 16.31667 | 25609 ft | 402 kts | 332° |
| 2026-05-05 20:18 | 44.31829 | 16.30048 | 26036 ft | 404 kts | 332° |
| 2026-05-05 20:18 | 44.34393 | 16.28418 | 26443 ft | 405 kts | 332° |
| 2026-05-05 20:18 | 44.37838 | 16.26227 | 26993 ft | 408 kts | 331° |
| 2026-05-05 20:18 | 44.39552 | 16.25135 | 27256 ft | 409 kts | 331° |
| 2026-05-05 20:19 | 44.42148 | 16.23480 | 27648 ft | 411 kts | 331° |
| 2026-05-05 20:19 | 44.44759 | 16.21816 | 27997 ft | 414 kts | 331° |
| 2026-05-05 20:19 | 44.47387 | 16.20140 | 28351 ft | 416 kts | 331° |
| 2026-05-05 20:19 | 44.50024 | 16.18459 | 28722 ft | 418 kts | 331° |
| 2026-05-05 20:20 | 44.53536 | 16.16217 | 29186 ft | 420 kts | 331° |
| 2026-05-05 20:20 | 44.56200 | 16.14507 | 29531 ft | 422 kts | 331° |
| 2026-05-05 20:20 | 44.57970 | 16.13369 | 29769 ft | 423 kts | 331° |
| 2026-05-05 20:20 | 44.60653 | 16.11647 | 30090 ft | 425 kts | 331° |
| 2026-05-05 20:21 | 44.63346 | 16.09918 | 30368 ft | 427 kts | 331° |
| 2026-05-05 20:21 | 44.66937 | 16.07611 | 30641 ft | 431 kts | 331° |
| 2026-05-05 20:21 | 44.68781 | 16.06426 | 30815 ft | 431 kts | 330° |
| 2026-05-05 20:21 | 44.71506 | 16.04673 | 31110 ft | 431 kts | 330° |
| 2026-05-05 20:22 | 44.74194 | 16.02941 | 31412 ft | 430 kts | 330° |
| 2026-05-05 20:22 | 44.76910 | 16.01189 | 31808 ft | 428 kts | 330° |
| 2026-05-05 20:22 | 44.79607 | 15.99449 | 32195 ft | 426 kts | 330° |
| 2026-05-05 20:22 | 44.82296 | 15.97715 | 32575 ft | 424 kts | 330° |
| 2026-05-05 20:23 | 44.84967 | 15.95988 | 32961 ft | 422 kts | 330° |
| 2026-05-05 20:23 | 44.87638 | 15.94255 | 33192 ft | 423 kts | 330° |
| 2026-05-05 20:23 | 44.90315 | 15.92515 | 33444 ft | 424 kts | 330° |
| 2026-05-05 20:23 | 44.93858 | 15.90214 | 33879 ft | 422 kts | 330° |
| 2026-05-05 20:24 | 44.95660 | 15.89043 | 34109 ft | 421 kts | 330° |
| 2026-05-05 20:24 | 44.98318 | 15.87315 | 34404 ft | 420 kts | 330° |
| 2026-05-05 20:24 | 45.00935 | 15.85612 | 34672 ft | 420 kts | 330° |
| 2026-05-05 20:24 | 45.03587 | 15.83883 | 34934 ft | 420 kts | 330° |
| 2026-05-05 20:25 | 45.06239 | 15.82152 | 35173 ft | 420 kts | 330° |
| 2026-05-05 20:25 | 45.08894 | 15.80417 | 35337 ft | 422 kts | 330° |
| 2026-05-05 20:25 | 45.11565 | 15.78668 | 35528 ft | 423 kts | 330° |
| 2026-05-05 20:25 | 45.14239 | 15.76912 | 35719 ft | 424 kts | 330° |
| 2026-05-05 20:26 | 45.16919 | 15.75152 | 35932 ft | 424 kts | 330° |
| 2026-05-05 20:26 | 45.19597 | 15.73393 | 36132 ft | 425 kts | 330° |
| 2026-05-05 20:26 | 45.22244 | 15.71656 | 36336 ft | 425 kts | 330° |
| 2026-05-05 20:26 | 45.24928 | 15.69895 | 36526 ft | 425 kts | 330° |
| 2026-05-05 20:27 | 45.27612 | 15.68132 | 36724 ft | 425 kts | 330° |
| 2026-05-05 20:27 | 45.30299 | 15.66362 | 36905 ft | 426 kts | 330° |
| 2026-05-05 20:27 | 45.32993 | 15.64584 | 37048 ft | 428 kts | 331° |
| 2026-05-05 20:27 | 45.35698 | 15.62799 | 37189 ft | 429 kts | 331° |
| 2026-05-05 20:28 | 45.38410 | 15.61007 | 37349 ft | 430 kts | 331° |
| 2026-05-05 20:28 | 45.41126 | 15.59209 | 37517 ft | 430 kts | 331° |
| 2026-05-05 20:28 | 45.43805 | 15.57436 | 37688 ft | 431 kts | 331° |
| 2026-05-05 20:28 | 45.46522 | 15.55642 | 37867 ft | 431 kts | 331° |
| 2026-05-05 20:29 | 45.49245 | 15.53852 | 37993 ft | 431 kts | 331° |
| 2026-05-05 20:29 | 45.54706 | 15.50261 | 38003 ft | 433 kts | 332° |
| 2026-05-05 20:30 | 45.60182 | 15.46660 | 38002 ft | 433 kts | 332° |
| 2026-05-05 20:30 | 45.65654 | 15.43051 | 38003 ft | 433 kts | 332° |
| 2026-05-05 20:31 | 45.71089 | 15.39452 | 38000 ft | 433 kts | 332° |
| 2026-05-05 20:31 | 45.76558 | 15.35813 | 38001 ft | 433 kts | 329° |
| 2026-05-05 20:32 | 45.81626 | 15.31272 | 38001 ft | 429 kts | 323° |
| 2026-05-05 20:32 | 45.86615 | 15.26557 | 37998 ft | 430 kts | 323° |
| 2026-05-05 20:33 | 45.91574 | 15.21865 | 38006 ft | 430 kts | 323° |
| 2026-05-05 20:33 | 45.96565 | 15.17132 | 38022 ft | 430 kts | 323° |
| 2026-05-05 20:34 | 46.01563 | 15.12368 | 37996 ft | 432 kts | 323° |
| 2026-05-05 20:34 | 46.06576 | 15.07584 | 37982 ft | 433 kts | 323° |
| 2026-05-05 20:35 | 46.11564 | 15.02821 | 37987 ft | 434 kts | 323° |
| 2026-05-05 20:35 | 46.16592 | 14.98009 | 37984 ft | 434 kts | 323° |
| 2026-05-05 20:36 | 46.21626 | 14.93188 | 38001 ft | 434 kts | 323° |
| 2026-05-05 20:36 | 46.26656 | 14.88343 | 38011 ft | 434 kts | 322° |
| 2026-05-05 20:37 | 46.31672 | 14.83499 | 38013 ft | 433 kts | 322° |
| 2026-05-05 20:37 | 46.36652 | 14.78695 | 37999 ft | 433 kts | 323° |
| 2026-05-05 20:38 | 46.41666 | 14.73850 | 37994 ft | 433 kts | 322° |
| 2026-05-05 20:38 | 46.46671 | 14.68988 | 37962 ft | 434 kts | 323° |
| 2026-05-05 20:39 | 46.51687 | 14.64111 | 37956 ft | 435 kts | 322° |
| 2026-05-05 20:39 | 46.56679 | 14.59248 | 37952 ft | 435 kts | 323° |
| 2026-05-05 20:40 | 46.61712 | 14.54362 | 37947 ft | 435 kts | 323° |
| 2026-05-05 20:40 | 46.66841 | 14.49651 | 37951 ft | 436 kts | 324° |
| 2026-05-05 20:41 | 46.72008 | 14.45006 | 37952 ft | 437 kts | 325° |
| 2026-05-05 20:41 | 46.77135 | 14.40344 | 37944 ft | 438 kts | 324° |
| 2026-05-05 20:42 | 46.82285 | 14.35594 | 37951 ft | 438 kts | 324° |
| 2026-05-05 20:42 | 46.87434 | 14.30828 | 37945 ft | 439 kts | 324° |
| 2026-05-05 20:43 | 46.92597 | 14.26053 | 37942 ft | 439 kts | 324° |
| 2026-05-05 20:43 | 46.97729 | 14.21287 | 37923 ft | 441 kts | 324° |
| 2026-05-05 20:44 | 47.02909 | 14.16471 | 37913 ft | 441 kts | 324° |
| 2026-05-05 20:44 | 47.08098 | 14.11645 | 37913 ft | 442 kts | 324° |
| 2026-05-05 20:45 | 47.15886 | 14.04372 | 37918 ft | 443 kts | 324° |
| 2026-05-05 20:45 | 47.21055 | 13.99530 | 37901 ft | 444 kts | 323° |
| 2026-05-05 20:46 | 47.26258 | 13.94640 | 37901 ft | 444 kts | 323° |
| 2026-05-05 20:46 | 47.31464 | 13.89731 | 37890 ft | 444 kts | 323° |
| 2026-05-05 20:47 | 47.36672 | 13.84810 | 37893 ft | 445 kts | 323° |
| 2026-05-05 20:47 | 47.41888 | 13.79877 | 37889 ft | 445 kts | 323° |
| 2026-05-05 20:48 | 47.47072 | 13.74964 | 37881 ft | 446 kts | 323° |
| 2026-05-05 20:48 | 47.52301 | 13.69998 | 37870 ft | 447 kts | 323° |
| 2026-05-05 20:49 | 47.57528 | 13.65022 | 37871 ft | 447 kts | 323° |
| 2026-05-05 20:49 | 47.62759 | 13.60033 | 37871 ft | 447 kts | 323° |
| 2026-05-05 20:50 | 47.67956 | 13.55054 | 37869 ft | 448 kts | 323° |
| 2026-05-05 20:50 | 47.73196 | 13.50023 | 37870 ft | 449 kts | 323° |
| 2026-05-05 20:51 | 47.78446 | 13.44976 | 37863 ft | 450 kts | 323° |
| 2026-05-05 20:51 | 47.83702 | 13.39912 | 37864 ft | 450 kts | 323° |
| 2026-05-05 20:52 | 47.88959 | 13.34835 | 37866 ft | 450 kts | 323° |
| 2026-05-05 20:52 | 47.94169 | 13.29775 | 37864 ft | 450 kts | 323° |
| 2026-05-05 20:53 | 47.99413 | 13.24669 | 37886 ft | 450 kts | 322° |
| 2026-05-05 20:53 | 48.04666 | 13.19563 | 37869 ft | 451 kts | 322° |
| 2026-05-05 20:54 | 48.09923 | 13.14435 | 37862 ft | 451 kts | 322° |
| 2026-05-05 20:54 | 48.15141 | 13.09324 | 37863 ft | 452 kts | 322° |
| 2026-05-05 20:55 | 48.20403 | 13.04165 | 37862 ft | 452 kts | 322° |
| 2026-05-05 20:55 | 48.25637 | 12.98942 | 37865 ft | 452 kts | 321° |
| 2026-05-05 20:56 | 48.30753 | 12.93482 | 37896 ft | 451 kts | 319° |
| 2026-05-05 20:56 | 48.35835 | 12.87945 | 37889 ft | 451 kts | 320° |
| 2026-05-05 20:57 | 48.40902 | 12.82479 | 37876 ft | 451 kts | 320° |
| 2026-05-05 20:57 | 48.46016 | 12.76998 | 37878 ft | 451 kts | 320° |
| 2026-05-05 20:58 | 48.51127 | 12.71510 | 37869 ft | 451 kts | 320° |
| 2026-05-05 20:58 | 48.56230 | 12.66012 | 37855 ft | 451 kts | 320° |
| 2026-05-05 20:59 | 48.61289 | 12.60534 | 37862 ft | 450 kts | 320° |
| 2026-05-05 20:59 | 48.66379 | 12.54996 | 37844 ft | 451 kts | 320° |
| 2026-05-05 21:00 | 48.71473 | 12.49451 | 37847 ft | 451 kts | 320° |
| 2026-05-05 21:00 | 48.76569 | 12.43901 | 37849 ft | 451 kts | 320° |
| 2026-05-05 21:01 | 48.81627 | 12.38368 | 37854 ft | 451 kts | 320° |
| 2026-05-05 21:01 | 48.86722 | 12.32787 | 37870 ft | 452 kts | 320° |
| 2026-05-05 21:02 | 48.91832 | 12.27177 | 37838 ft | 454 kts | 320° |
| 2026-05-05 21:02 | 48.96948 | 12.21537 | 37830 ft | 455 kts | 320° |
| 2026-05-05 21:03 | 49.02040 | 12.15917 | 37831 ft | 455 kts | 320° |
| 2026-05-05 21:03 | 49.07166 | 12.10238 | 37836 ft | 456 kts | 320° |
| 2026-05-05 21:04 | 49.12291 | 12.04543 | 37849 ft | 456 kts | 320° |
| 2026-05-05 21:04 | 49.17422 | 11.98827 | 37873 ft | 457 kts | 320° |
| 2026-05-05 21:05 | 49.22525 | 11.93129 | 37830 ft | 458 kts | 320° |
| 2026-05-05 21:05 | 49.27675 | 11.87377 | 37828 ft | 459 kts | 320° |
| 2026-05-05 21:06 | 49.32837 | 11.81603 | 37838 ft | 459 kts | 320° |
| 2026-05-05 21:06 | 49.37990 | 11.75805 | 37833 ft | 460 kts | 320° |
| 2026-05-05 21:07 | 49.43112 | 11.70020 | 37834 ft | 460 kts | 320° |
| 2026-05-05 21:07 | 49.48270 | 11.64191 | 37852 ft | 460 kts | 320° |
| 2026-05-05 21:08 | 49.53424 | 11.58346 | 37845 ft | 461 kts | 320° |
| 2026-05-05 21:08 | 49.58290 | 11.52108 | 37841 ft | 456 kts | 310° |
| 2026-05-05 21:09 | 49.62702 | 11.45090 | 37843 ft | 455 kts | 310° |
| 2026-05-05 21:09 | 49.67108 | 11.38070 | 37849 ft | 455 kts | 310° |
| 2026-05-05 21:10 | 49.71511 | 11.31052 | 37864 ft | 455 kts | 310° |
| 2026-05-05 21:10 | 49.75910 | 11.24015 | 37862 ft | 455 kts | 310° |
| 2026-05-05 21:11 | 49.80276 | 11.17025 | 37855 ft | 455 kts | 310° |
| 2026-05-05 21:11 | 49.84669 | 11.09960 | 37841 ft | 455 kts | 310° |
| 2026-05-05 21:12 | 49.89057 | 11.02883 | 37845 ft | 455 kts | 310° |
| 2026-05-05 21:12 | 49.93441 | 10.95790 | 37859 ft | 456 kts | 310° |
| 2026-05-05 21:13 | 49.97802 | 10.88726 | 37850 ft | 456 kts | 310° |
| 2026-05-05 21:13 | 50.02188 | 10.81600 | 37843 ft | 456 kts | 310° |
| 2026-05-05 21:14 | 50.06569 | 10.74456 | 37843 ft | 456 kts | 310° |
| 2026-05-05 21:14 | 50.10952 | 10.67315 | 37841 ft | 456 kts | 310° |
| 2026-05-05 21:15 | 50.15331 | 10.60250 | 37837 ft | 456 kts | 310° |
| 2026-05-05 21:15 | 50.19736 | 10.53114 | 37853 ft | 457 kts | 310° |
| 2026-05-05 21:16 | 50.24138 | 10.45957 | 37842 ft | 457 kts | 310° |
| 2026-05-05 21:16 | 50.28537 | 10.38779 | 37835 ft | 457 kts | 310° |
| 2026-05-05 21:17 | 50.32904 | 10.31633 | 37827 ft | 458 kts | 310° |
| 2026-05-05 21:17 | 50.37264 | 10.24380 | 37836 ft | 457 kts | 309° |
| 2026-05-05 21:18 | 50.41458 | 10.16901 | 37853 ft | 457 kts | 308° |
| 2026-05-05 21:18 | 50.45594 | 10.09341 | 37846 ft | 457 kts | 307° |
| 2026-05-05 21:19 | 50.49733 | 10.01848 | 37839 ft | 457 kts | 308° |
| 2026-05-05 21:19 | 50.53923 | 9.94316 | 37835 ft | 458 kts | 308° |
| 2026-05-05 21:20 | 50.58114 | 9.86771 | 37831 ft | 458 kts | 308° |
| 2026-05-05 21:20 | 50.62296 | 9.79198 | 37863 ft | 458 kts | 308° |
| 2026-05-05 21:21 | 50.66470 | 9.71618 | 37849 ft | 458 kts | 308° |
| 2026-05-05 21:21 | 50.70600 | 9.64076 | 37843 ft | 457 kts | 306° |
| 2026-05-05 21:22 | 50.73859 | 9.55620 | 37831 ft | 448 kts | 288° |
| 2026-05-05 21:22 | 50.75983 | 9.46394 | 37827 ft | 447 kts | 286° |
| 2026-05-05 21:23 | 50.78094 | 9.37151 | 37845 ft | 447 kts | 286° |
| 2026-05-05 21:23 | 50.80179 | 9.27962 | 37842 ft | 447 kts | 286° |
| 2026-05-05 21:24 | 50.82272 | 9.18697 | 37839 ft | 448 kts | 286° |
| 2026-05-05 21:24 | 50.84355 | 9.09417 | 37840 ft | 448 kts | 286° |
| 2026-05-05 21:25 | 50.86430 | 9.00121 | 37837 ft | 448 kts | 286° |
| 2026-05-05 21:25 | 50.88484 | 8.90882 | 37835 ft | 448 kts | 286° |
| 2026-05-05 21:26 | 50.90548 | 8.81577 | 37829 ft | 448 kts | 286° |
| 2026-05-05 21:26 | 50.92605 | 8.72259 | 37830 ft | 448 kts | 286° |
| 2026-05-05 21:27 | 50.94651 | 8.62938 | 37832 ft | 448 kts | 286° |
| 2026-05-05 21:27 | 50.96675 | 8.53668 | 37834 ft | 448 kts | 285° |
| 2026-05-05 21:28 | 50.98704 | 8.44326 | 37844 ft | 448 kts | 286° |
| 2026-05-05 21:28 | 51.00723 | 8.34978 | 37838 ft | 448 kts | 286° |
| 2026-05-05 21:29 | 51.02391 | 8.25502 | 37841 ft | 445 kts | 279° |
| 2026-05-05 21:29 | 51.03730 | 8.15917 | 37836 ft | 444 kts | 279° |
| 2026-05-05 21:30 | 51.05054 | 8.06391 | 37836 ft | 444 kts | 279° |
| 2026-05-05 21:30 | 51.06375 | 7.96796 | 37849 ft | 444 kts | 279° |
| 2026-05-05 21:31 | 51.07687 | 7.87192 | 37855 ft | 444 kts | 279° |
| 2026-05-05 21:31 | 51.08993 | 7.77590 | 37843 ft | 444 kts | 279° |
| 2026-05-05 21:32 | 51.10288 | 7.68045 | 37842 ft | 444 kts | 279° |
| 2026-05-05 21:32 | 51.11581 | 7.58437 | 37856 ft | 444 kts | 279° |
| 2026-05-05 21:33 | 51.12867 | 7.48817 | 37847 ft | 444 kts | 279° |
| 2026-05-05 21:33 | 51.14135 | 7.39188 | 37849 ft | 445 kts | 279° |
| 2026-05-05 21:34 | 51.15398 | 7.29620 | 37850 ft | 444 kts | 279° |
| 2026-05-05 21:34 | 51.16659 | 7.19981 | 37853 ft | 445 kts | 279° |
| 2026-05-05 21:35 | 51.17911 | 7.10329 | 37871 ft | 445 kts | 279° |
| 2026-05-05 21:35 | 51.19159 | 7.00672 | 37864 ft | 445 kts | 279° |
| 2026-05-05 21:36 | 51.20398 | 6.91001 | 37855 ft | 445 kts | 278° |
| 2026-05-05 21:36 | 51.21622 | 6.81399 | 37852 ft | 445 kts | 278° |
| 2026-05-05 21:37 | 51.22843 | 6.71734 | 37850 ft | 445 kts | 278° |
| 2026-05-05 21:37 | 51.24058 | 6.62056 | 37859 ft | 445 kts | 278° |
| 2026-05-05 21:38 | 51.25263 | 6.52372 | 37879 ft | 445 kts | 278° |
| 2026-05-05 21:38 | 51.26452 | 6.42760 | 37877 ft | 444 kts | 278° |
| 2026-05-05 21:39 | 51.27642 | 6.33076 | 37877 ft | 444 kts | 278° |
| 2026-05-05 21:39 | 51.28825 | 6.23394 | 37876 ft | 444 kts | 278° |
| 2026-05-05 21:40 | 51.30000 | 6.13701 | 37888 ft | 444 kts | 278° |
| 2026-05-05 21:40 | 51.31166 | 6.04000 | 37884 ft | 444 kts | 278° |
| 2026-05-05 21:41 | 51.32309 | 5.94362 | 37890 ft | 445 kts | 278° |
| 2026-05-05 21:41 | 51.33459 | 5.84645 | 37889 ft | 445 kts | 278° |
| 2026-05-05 21:42 | 51.34600 | 5.74923 | 37893 ft | 445 kts | 278° |
| 2026-05-05 21:42 | 51.35733 | 5.65196 | 37904 ft | 445 kts | 278° |
| 2026-05-05 21:43 | 51.36853 | 5.55530 | 37902 ft | 445 kts | 278° |
| 2026-05-05 21:43 | 51.37968 | 5.45792 | 37905 ft | 445 kts | 278° |
| 2026-05-05 21:44 | 51.39083 | 5.36050 | 37905 ft | 445 kts | 279° |
| 2026-05-05 21:44 | 51.40524 | 5.26399 | 37919 ft | 446 kts | 283° |
| 2026-05-05 21:45 | 51.42218 | 5.16896 | 37913 ft | 447 kts | 284° |
| 2026-05-05 21:45 | 51.43895 | 5.07319 | 37909 ft | 446 kts | 283° |
| 2026-05-05 21:46 | 51.45478 | 4.97707 | 37908 ft | 446 kts | 282° |
| 2026-05-05 21:46 | 51.47013 | 4.88072 | 37907 ft | 446 kts | 282° |
| 2026-05-05 21:47 | 51.48539 | 4.78507 | 37926 ft | 445 kts | 282° |
| 2026-05-05 21:47 | 51.50083 | 4.68897 | 37920 ft | 444 kts | 282° |
| 2026-05-05 21:48 | 51.51617 | 4.59301 | 37917 ft | 443 kts | 282° |
| 2026-05-05 21:48 | 51.53142 | 4.49712 | 37914 ft | 443 kts | 282° |
| 2026-05-05 21:49 | 51.54643 | 4.40195 | 37913 ft | 443 kts | 282° |
| 2026-05-05 21:49 | 51.56150 | 4.30610 | 37912 ft | 442 kts | 282° |
| 2026-05-05 21:50 | 51.57647 | 4.21025 | 37911 ft | 442 kts | 282° |
| 2026-05-05 21:50 | 51.59131 | 4.11433 | 37911 ft | 442 kts | 281° |
| 2026-05-05 21:51 | 51.60608 | 4.01835 | 37917 ft | 442 kts | 281° |
| 2026-05-05 21:51 | 51.62077 | 3.92302 | 37921 ft | 442 kts | 281° |
| 2026-05-05 21:52 | 51.64276 | 3.77889 | 37939 ft | 442 kts | 281° |
| 2026-05-05 21:53 | 51.65721 | 3.68279 | 37933 ft | 442 kts | 281° |
| 2026-05-05 21:53 | 51.67153 | 3.58736 | 37947 ft | 441 kts | 281° |
| 2026-05-05 21:54 | 51.68592 | 3.49118 | 37941 ft | 442 kts | 281° |
| 2026-05-05 21:54 | 51.70017 | 3.39493 | 37953 ft | 441 kts | 281° |
| 2026-05-05 21:55 | 51.71427 | 3.29867 | 37956 ft | 441 kts | 281° |
| 2026-05-05 21:55 | 51.72759 | 3.20295 | 37960 ft | 440 kts | 276° |
| 2026-05-05 21:56 | 51.72718 | 3.10550 | 37967 ft | 433 kts | 259° |
| 2026-05-05 21:56 | 51.71883 | 3.00921 | 37954 ft | 434 kts | 260° |
| 2026-05-05 21:57 | 51.71044 | 2.91292 | 37958 ft | 433 kts | 259° |
| 2026-05-05 21:57 | 51.70200 | 2.81664 | 37948 ft | 434 kts | 260° |
| 2026-05-05 21:58 | 51.69352 | 2.72092 | 37954 ft | 434 kts | 259° |
| 2026-05-05 21:58 | 51.68489 | 2.62459 | 37946 ft | 435 kts | 259° |
| 2026-05-05 21:59 | 51.67615 | 2.52820 | 37954 ft | 434 kts | 261° |
| 2026-05-05 21:59 | 51.66741 | 2.43190 | 37956 ft | 435 kts | 260° |
| 2026-05-05 22:00 | 51.65860 | 2.33615 | 37958 ft | 435 kts | 260° |
| 2026-05-05 22:00 | 51.64971 | 2.23966 | 37957 ft | 436 kts | 258° |
| 2026-05-05 22:01 | 51.64066 | 2.14306 | 37961 ft | 436 kts | 259° |
| 2026-05-05 22:01 | 51.63158 | 2.04641 | 37964 ft | 437 kts | 260° |
| 2026-05-05 22:02 | 51.62262 | 1.94972 | 37969 ft | 437 kts | 258° |
| 2026-05-05 22:02 | 51.61367 | 1.85373 | 37981 ft | 437 kts | 259° |
| 2026-05-05 22:03 | 51.60453 | 1.75707 | 37979 ft | 437 kts | 260° |
| 2026-05-05 22:03 | 51.59531 | 1.66050 | 37986 ft | 437 kts | 259° |
| 2026-05-05 22:04 | 51.59280 | 1.56289 | 37983 ft | 439 kts | 272° |
| 2026-05-05 22:04 | 51.59718 | 1.46552 | 37987 ft | 440 kts | 272° |
| 2026-05-05 22:05 | 51.60138 | 1.36739 | 37996 ft | 439 kts | 272° |
| 2026-05-05 22:05 | 51.60536 | 1.26942 | 38000 ft | 439 kts | 272° |
| 2026-05-05 22:06 | 51.60933 | 1.17149 | 38000 ft | 438 kts | 272° |
| 2026-05-05 22:06 | 51.61327 | 1.07433 | 38001 ft | 438 kts | 272° |
| 2026-05-05 22:07 | 51.61715 | 0.97645 | 38002 ft | 438 kts | 272° |
| 2026-05-05 22:07 | 51.62085 | 0.87860 | 38001 ft | 438 kts | 272° |
| 2026-05-05 22:08 | 51.62445 | 0.78071 | 37996 ft | 438 kts | 272° |
| 2026-05-05 22:08 | 51.62800 | 0.68293 | 37995 ft | 438 kts | 272° |
| 2026-05-05 22:09 | 51.63149 | 0.58572 | 37994 ft | 438 kts | 272° |
| 2026-05-05 22:09 | 51.63492 | 0.48789 | 37997 ft | 438 kts | 272° |
| 2026-05-05 22:10 | 51.63833 | 0.39011 | 38003 ft | 437 kts | 272° |
| 2026-05-05 22:10 | 51.64153 | 0.29235 | 38020 ft | 437 kts | 272° |
| 2026-05-05 22:11 | 51.64860 | 0.19609 | 38018 ft | 438 kts | 285° |
| 2026-05-05 22:11 | 51.67508 | 0.10808 | 38016 ft | 440 kts | 306° |
| 2026-05-05 22:12 | 51.71632 | 0.03655 | 38013 ft | 442 kts | 313° |
| 2026-05-05 22:12 | 51.75941 | -0.03423 | 38061 ft | 442 kts | 313° |
| 2026-05-05 22:13 | 51.80216 | -0.10478 | 38066 ft | 442 kts | 313° |
| 2026-05-05 22:13 | 51.84510 | -0.17586 | 38025 ft | 442 kts | 313° |
| 2026-05-05 22:14 | 51.88760 | -0.24650 | 38023 ft | 442 kts | 313° |
| 2026-05-05 22:14 | 51.93040 | -0.31791 | 38022 ft | 442 kts | 312° |
| 2026-05-05 22:15 | 51.97290 | -0.38885 | 38021 ft | 442 kts | 312° |
| 2026-05-05 22:15 | 51.99431 | -0.42465 | 37628 ft | 443 kts | 312° |
| 2026-05-05 22:15 | 52.01576 | -0.46055 | 36898 ft | 443 kts | 312° |
| 2026-05-05 22:15 | 52.03718 | -0.49648 | 36112 ft | 444 kts | 312° |
| 2026-05-05 22:16 | 52.05867 | -0.53264 | 35270 ft | 446 kts | 311° |
| 2026-05-05 22:16 | 52.08028 | -0.56908 | 34388 ft | 449 kts | 311° |
| 2026-05-05 22:16 | 52.10201 | -0.60572 | 33560 ft | 450 kts | 311° |
| 2026-05-05 22:16 | 52.12354 | -0.64195 | 33040 ft | 442 kts | 311° |
| 2026-05-05 22:17 | 52.14477 | -0.67774 | 32441 ft | 437 kts | 311° |
| 2026-05-05 22:17 | 52.16541 | -0.71272 | 31865 ft | 432 kts | 310° |
| 2026-05-05 22:17 | 52.18611 | -0.74792 | 31294 ft | 428 kts | 310° |
| 2026-05-05 22:17 | 52.20659 | -0.78282 | 30732 ft | 424 kts | 310° |
| 2026-05-05 22:18 | 52.22689 | -0.81746 | 30179 ft | 421 kts | 310° |
| 2026-05-05 22:18 | 52.24810 | -0.85016 | 29570 ft | 420 kts | 318° |
| 2026-05-05 22:18 | 52.27219 | -0.87705 | 29038 ft | 418 kts | 325° |
| 2026-05-05 22:18 | 52.29693 | -0.90147 | 28510 ft | 414 kts | 325° |
| 2026-05-05 22:19 | 52.32142 | -0.92570 | 27977 ft | 409 kts | 325° |
| 2026-05-05 22:19 | 52.34526 | -0.94938 | 27482 ft | 404 kts | 325° |
| 2026-05-05 22:19 | 52.36912 | -0.97317 | 26973 ft | 400 kts | 325° |
| 2026-05-05 22:19 | 52.39270 | -0.99674 | 26514 ft | 395 kts | 326° |
| 2026-05-05 22:20 | 52.41602 | -1.02009 | 26032 ft | 391 kts | 326° |
| 2026-05-05 22:20 | 52.43912 | -1.04325 | 25575 ft | 387 kts | 326° |
| 2026-05-05 22:20 | 52.46195 | -1.06615 | 25121 ft | 383 kts | 326° |
| 2026-05-05 22:20 | 52.48455 | -1.08886 | 24671 ft | 379 kts | 326° |
| 2026-05-05 22:21 | 52.50695 | -1.11139 | 24217 ft | 376 kts | 326° |
| 2026-05-05 22:21 | 52.52885 | -1.13342 | 23772 ft | 373 kts | 326° |
| 2026-05-05 22:21 | 52.55089 | -1.15562 | 23254 ft | 370 kts | 326° |
| 2026-05-05 22:21 | 52.57275 | -1.17766 | 22771 ft | 366 kts | 326° |
| 2026-05-05 22:22 | 52.59432 | -1.19946 | 22323 ft | 362 kts | 326° |
| 2026-05-05 22:22 | 52.61566 | -1.22106 | 21868 ft | 358 kts | 326° |
| 2026-05-05 22:22 | 52.63678 | -1.24242 | 21412 ft | 355 kts | 326° |
| 2026-05-05 22:22 | 52.65774 | -1.26359 | 20957 ft | 352 kts | 326° |
| 2026-05-05 22:23 | 52.67845 | -1.28457 | 20499 ft | 350 kts | 326° |
| 2026-05-05 22:23 | 52.69892 | -1.30533 | 20050 ft | 348 kts | 326° |
| 2026-05-05 22:23 | 52.71954 | -1.32625 | 19612 ft | 349 kts | 326° |
| 2026-05-05 22:23 | 52.74017 | -1.34722 | 19202 ft | 348 kts | 326° |
| 2026-05-05 22:24 | 52.76071 | -1.36814 | 18773 ft | 346 kts | 326° |
| 2026-05-05 22:24 | 52.78116 | -1.38901 | 18329 ft | 345 kts | 326° |
| 2026-05-05 22:24 | 52.80148 | -1.40981 | 17857 ft | 342 kts | 326° |
| 2026-05-05 22:24 | 52.82158 | -1.43045 | 17419 ft | 339 kts | 326° |
| 2026-05-05 22:25 | 52.84153 | -1.45091 | 17004 ft | 336 kts | 326° |
| 2026-05-05 22:25 | 52.86134 | -1.47125 | 16582 ft | 334 kts | 326° |
| 2026-05-05 22:25 | 52.88099 | -1.49142 | 16166 ft | 331 kts | 326° |
| 2026-05-05 22:25 | 52.90025 | -1.51115 | 15758 ft | 329 kts | 326° |
| 2026-05-05 22:26 | 52.91961 | -1.53103 | 15344 ft | 326 kts | 326° |
| 2026-05-05 22:26 | 52.93884 | -1.55079 | 14936 ft | 324 kts | 326° |
| 2026-05-05 22:26 | 52.95791 | -1.57041 | 14528 ft | 322 kts | 326° |
| 2026-05-05 22:26 | 52.97683 | -1.58998 | 14128 ft | 320 kts | 327° |
| 2026-05-05 22:27 | 52.99562 | -1.60949 | 13706 ft | 317 kts | 327° |
| 2026-05-05 22:27 | 53.01417 | -1.62874 | 13299 ft | 314 kts | 326° |
| 2026-05-05 22:27 | 53.03260 | -1.64782 | 12907 ft | 310 kts | 326° |
| 2026-05-05 22:27 | 53.05049 | -1.66750 | 12516 ft | 307 kts | 321° |
| 2026-05-05 22:28 | 53.06555 | -1.69216 | 12135 ft | 302 kts | 310° |
| 2026-05-05 22:28 | 53.07914 | -1.71870 | 11757 ft | 300 kts | 310° |
| 2026-05-05 22:28 | 53.09257 | -1.74477 | 11531 ft | 292 kts | 311° |
| 2026-05-05 22:28 | 53.10546 | -1.76970 | 11265 ft | 286 kts | 311° |
| 2026-05-05 22:29 | 53.11833 | -1.79452 | 11019 ft | 281 kts | 311° |
| 2026-05-05 22:29 | 53.13101 | -1.81904 | 10719 ft | 279 kts | 311° |
| 2026-05-05 22:29 | 53.14366 | -1.84357 | 10328 ft | 278 kts | 311° |
| 2026-05-05 22:29 | 53.15621 | -1.86799 | 9952 ft | 277 kts | 311° |
| 2026-05-05 22:30 | 53.16869 | -1.89230 | 9484 ft | 277 kts | 311° |
| 2026-05-05 22:30 | 53.18112 | -1.91658 | 9132 ft | 273 kts | 311° |
| 2026-05-05 22:30 | 53.19340 | -1.94058 | 8703 ft | 272 kts | 311° |
| 2026-05-05 22:30 | 53.20148 | -1.95640 | 8450 ft | 269 kts | 311° |
| 2026-05-05 22:31 | 53.20949 | -1.97206 | 8277 ft | 265 kts | 311° |
| 2026-05-05 22:31 | 53.22775 | -2.01058 | 8039 ft | 247 kts | 299° |
| 2026-05-05 22:31 | 53.23339 | -2.03750 | 7982 ft | 249 kts | 282° |
| 2026-05-05 22:32 | 53.22982 | -2.09515 | 7491 ft | 250 kts | 258° |
| 2026-05-05 22:32 | 53.22589 | -2.12339 | 7235 ft | 250 kts | 259° |
| 2026-05-05 22:32 | 53.22458 | -2.13291 | 7148 ft | 250 kts | 258° |